sensor_id;sensor_type;location;lat;lon;timestamp;pressure;altitude;pressure_sealevel;temperature;humidity
76998;BME280;65930;48.874;10.734;2023-12-29T00:00:26;96103.28;;;7.06;94.97
76998;BME280;65930;48.874;10.734;2023-12-29T00:02:54;96101.97;;;7.30;93.45
76998;BME280;65930;48.874;10.734;2023-12-29T00:05:22;96100.91;;;7.05;95.61
76998;BME280;65930;48.874;10.734;2023-12-29T00:07:50;96112.19;;;6.63;97.95
76998;BME280;65930;48.874;10.734;2023-12-29T00:10:19;96103.22;;;6.99;96.90
76998;BME280;65930;48.874;10.734;2023-12-29T00:12:47;96106.31;;;6.94;97.57
76998;BME280;65930;48.874;10.734;2023-12-29T00:15:17;96110.19;;;6.90;97.27
76998;BME280;65930;48.874;10.734;2023-12-29T00:17:45;96095.13;;;6.80;98.87
76998;BME280;65930;48.874;10.734;2023-12-29T00:20:14;96098.25;;;7.12;97.38
76998;BME280;65930;48.874;10.734;2023-12-29T00:23:02;96103.47;;;7.24;97.01
76998;BME280;65930;48.874;10.734;2023-12-29T00:25:31;96112.00;;;7.08;97.39
76998;BME280;65930;48.874;10.734;2023-12-29T00:27:59;96111.22;;;7.12;97.72
76998;BME280;65930;48.874;10.734;2023-12-29T00:30:28;96114.47;;;7.21;96.96
76998;BME280;65930;48.874;10.734;2023-12-29T00:33:16;96098.94;;;7.05;97.70
76998;BME280;65930;48.874;10.734;2023-12-29T00:35:44;96099.94;;;7.24;96.94
76998;BME280;65930;48.874;10.734;2023-12-29T00:38:12;96097.19;;;7.24;96.10
76998;BME280;65930;48.874;10.734;2023-12-29T00:40:41;96103.88;;;7.23;97.08
76998;BME280;65930;48.874;10.734;2023-12-29T00:43:09;96097.25;;;7.31;96.21
76998;BME280;65930;48.874;10.734;2023-12-29T00:45:37;96101.19;;;7.30;95.55
76998;BME280;65930;48.874;10.734;2023-12-29T00:48:06;96101.66;;;7.35;95.54
76998;BME280;65930;48.874;10.734;2023-12-29T00:50:34;96096.00;;;7.25;95.93
76998;BME280;65930;48.874;10.734;2023-12-29T00:53:03;96094.00;;;7.18;95.71
76998;BME280;65930;48.874;10.734;2023-12-29T00:55:31;96100.38;;;7.26;95.77
76998;BME280;65930;48.874;10.734;2023-12-29T00:58:01;96097.25;;;7.31;95.23
76998;BME280;65930;48.874;10.734;2023-12-29T01:00:29;96090.13;;;7.26;95.30
76998;BME280;65930;48.874;10.734;2023-12-29T01:02:57;96087.09;;;7.38;94.80
76998;BME280;65930;48.874;10.734;2023-12-29T01:05:25;96083.16;;;7.36;94.25
76998;BME280;65930;48.874;10.734;2023-12-29T01:07:55;96079.16;;;7.30;95.20
76998;BME280;65930;48.874;10.734;2023-12-29T01:10:23;96083.41;;;7.24;95.68
76998;BME280;65930;48.874;10.734;2023-12-29T01:12:51;96082.66;;;7.27;95.14
76998;BME280;65930;48.874;10.734;2023-12-29T01:15:21;96081.06;;;7.26;95.54
76998;BME280;65930;48.874;10.734;2023-12-29T01:17:49;96070.44;;;7.24;95.61
76998;BME280;65930;48.874;10.734;2023-12-29T01:20:17;96075.09;;;7.20;95.90
76998;BME280;65930;48.874;10.734;2023-12-29T01:22:45;96071.97;;;7.22;95.73
76998;BME280;65930;48.874;10.734;2023-12-29T01:25:13;96082.31;;;7.32;95.07
76998;BME280;65930;48.874;10.734;2023-12-29T01:27:41;96063.31;;;7.23;95.74
76998;BME280;65930;48.874;10.734;2023-12-29T01:30:09;96070.72;;;7.16;96.01
76998;BME280;65930;48.874;10.734;2023-12-29T01:32:39;96074.25;;;7.13;96.43
76998;BME280;65930;48.874;10.734;2023-12-29T01:35:07;96075.09;;;7.17;96.28
76998;BME280;65930;48.874;10.734;2023-12-29T01:37:35;96069.53;;;7.13;96.73
76998;BME280;65930;48.874;10.734;2023-12-29T01:40:04;96077.75;;;7.09;96.18
76998;BME280;65930;48.874;10.734;2023-12-29T01:42:32;96074.31;;;7.20;96.04
76998;BME280;65930;48.874;10.734;2023-12-29T01:45:00;96057.00;;;7.19;95.67
76998;BME280;65930;48.874;10.734;2023-12-29T01:47:28;96073.00;;;7.06;96.26
76998;BME280;65930;48.874;10.734;2023-12-29T01:49:58;96071.34;;;7.35;94.54
76998;BME280;65930;48.874;10.734;2023-12-29T01:52:26;96077.88;;;7.20;94.92
76998;BME280;65930;48.874;10.734;2023-12-29T01:54:55;96071.97;;;7.18;95.28
76998;BME280;65930;48.874;10.734;2023-12-29T01:57:24;96065.59;;;7.14;94.67
76998;BME280;65930;48.874;10.734;2023-12-29T01:59:52;96071.06;;;7.11;94.98
76998;BME280;65930;48.874;10.734;2023-12-29T02:02:20;96071.19;;;7.21;94.34
76998;BME280;65930;48.874;10.734;2023-12-29T02:04:48;96071.00;;;7.03;94.61
76998;BME280;65930;48.874;10.734;2023-12-29T02:07:18;96067.16;;;7.12;93.70
76998;BME280;65930;48.874;10.734;2023-12-29T02:09:48;96064.88;;;7.21;93.56
76998;BME280;65930;48.874;10.734;2023-12-29T02:12:19;96071.00;;;7.03;93.94
76998;BME280;65930;48.874;10.734;2023-12-29T02:14:48;96054.19;;;7.12;93.57
76998;BME280;65930;48.874;10.734;2023-12-29T02:17:22;96051.88;;;7.18;93.61
76998;BME280;65930;48.874;10.734;2023-12-29T02:19:53;96059.91;;;6.96;93.76
76998;BME280;65930;48.874;10.734;2023-12-29T02:22:23;96057.56;;;6.98;93.73
76998;BME280;65930;48.874;10.734;2023-12-29T02:24:53;96052.06;;;6.98;93.82
76998;BME280;65930;48.874;10.734;2023-12-29T02:27:30;96037.97;;;7.03;93.28
76998;BME280;65930;48.874;10.734;2023-12-29T02:30:09;96024.78;;;6.86;93.72
76998;BME280;65930;48.874;10.734;2023-12-29T02:32:42;96032.00;;;6.98;93.24
76998;BME280;65930;48.874;10.734;2023-12-29T02:35:23;96028.88;;;6.99;93.16
76998;BME280;65930;48.874;10.734;2023-12-29T02:37:53;96016.59;;;6.93;93.01
76998;BME280;65930;48.874;10.734;2023-12-29T02:40:23;96031.56;;;6.96;93.58
76998;BME280;65930;48.874;10.734;2023-12-29T02:42:52;96025.25;;;6.95;93.14
76998;BME280;65930;48.874;10.734;2023-12-29T02:45:20;96024.00;;;6.86;93.13
76998;BME280;65930;48.874;10.734;2023-12-29T02:47:49;96018.72;;;7.11;91.88
76998;BME280;65930;48.874;10.734;2023-12-29T02:50:17;96021.25;;;6.86;93.18
76998;BME280;65930;48.874;10.734;2023-12-29T02:52:45;96030.53;;;7.07;91.77
76998;BME280;65930;48.874;10.734;2023-12-29T02:55:14;96030.22;;;6.79;93.39
76998;BME280;65930;48.874;10.734;2023-12-29T02:57:43;96032.94;;;6.76;93.79
76998;BME280;65930;48.874;10.734;2023-12-29T03:00:12;96037.13;;;6.99;93.00
76998;BME280;65930;48.874;10.734;2023-12-29T03:02:40;96031.41;;;6.82;93.68
76998;BME280;65930;48.874;10.734;2023-12-29T03:05:08;96033.00;;;6.83;94.38
76998;BME280;65930;48.874;10.734;2023-12-29T03:07:37;96037.69;;;6.79;94.58
76998;BME280;65930;48.874;10.734;2023-12-29T03:10:07;96032.78;;;6.98;93.69
76998;BME280;65930;48.874;10.734;2023-12-29T03:12:35;96028.25;;;6.80;94.53
76998;BME280;65930;48.874;10.734;2023-12-29T03:15:05;96030.38;;;6.93;94.16
76998;BME280;65930;48.874;10.734;2023-12-29T03:17:33;96022.88;;;6.90;94.03
76998;BME280;65930;48.874;10.734;2023-12-29T03:20:02;96023.22;;;6.85;94.24
76998;BME280;65930;48.874;10.734;2023-12-29T03:22:31;96022.56;;;6.99;94.02
76998;BME280;65930;48.874;10.734;2023-12-29T03:24:59;96024.88;;;6.93;94.27
76998;BME280;65930;48.874;10.734;2023-12-29T03:27:28;96015.00;;;6.92;94.00
76998;BME280;65930;48.874;10.734;2023-12-29T03:29:56;96002.97;;;7.07;93.10
76998;BME280;65930;48.874;10.734;2023-12-29T03:32:25;96008.34;;;6.93;94.34
76998;BME280;65930;48.874;10.734;2023-12-29T03:34:53;96001.03;;;7.12;93.21
76998;BME280;65930;48.874;10.734;2023-12-29T03:37:21;95997.72;;;6.95;93.95
76998;BME280;65930;48.874;10.734;2023-12-29T03:39:49;95989.59;;;7.09;93.37
76998;BME280;65930;48.874;10.734;2023-12-29T03:42:17;95987.97;;;7.05;93.28
76998;BME280;65930;48.874;10.734;2023-12-29T03:44:45;95990.84;;;7.16;92.83
76998;BME280;65930;48.874;10.734;2023-12-29T03:47:13;95989.72;;;7.24;92.65
76998;BME280;65930;48.874;10.734;2023-12-29T03:49:43;95987.75;;;7.21;92.42
76998;BME280;65930;48.874;10.734;2023-12-29T03:52:11;95991.63;;;7.16;91.72
76998;BME280;65930;48.874;10.734;2023-12-29T03:54:39;95983.81;;;7.22;92.31
76998;BME280;65930;48.874;10.734;2023-12-29T03:57:07;95974.41;;;7.23;92.21
76998;BME280;65930;48.874;10.734;2023-12-29T03:59:37;95981.75;;;7.08;92.39
76998;BME280;65930;48.874;10.734;2023-12-29T04:02:05;95965.28;;;7.19;92.72
76998;BME280;65930;48.874;10.734;2023-12-29T04:04:36;95973.84;;;7.06;92.03
76998;BME280;65930;48.874;10.734;2023-12-29T04:07:06;95961.81;;;7.25;91.90
76998;BME280;65930;48.874;10.734;2023-12-29T04:09:34;95963.59;;;7.03;92.26
76998;BME280;65930;48.874;10.734;2023-12-29T04:12:02;95945.81;;;7.45;90.70
76998;BME280;65930;48.874;10.734;2023-12-29T04:14:30;95947.69;;;7.30;91.09
76998;BME280;65930;48.874;10.734;2023-12-29T04:16:59;95950.75;;;7.18;91.38
76998;BME280;65930;48.874;10.734;2023-12-29T04:19:27;95964.34;;;7.00;93.29
76998;BME280;65930;48.874;10.734;2023-12-29T04:21:55;95974.19;;;7.01;93.37
76998;BME280;65930;48.874;10.734;2023-12-29T04:24:25;95962.94;;;7.21;92.92
76998;BME280;65930;48.874;10.734;2023-12-29T04:26:52;95969.66;;;7.23;92.41
76998;BME280;65930;48.874;10.734;2023-12-29T04:29:20;95967.41;;;7.32;92.17
76998;BME280;65930;48.874;10.734;2023-12-29T04:31:49;95962.66;;;7.33;92.08
76998;BME280;65930;48.874;10.734;2023-12-29T04:34:17;95963.06;;;7.35;91.96
76998;BME280;65930;48.874;10.734;2023-12-29T04:36:45;95966.28;;;7.44;91.29
76998;BME280;65930;48.874;10.734;2023-12-29T04:39:13;95969.34;;;7.32;91.76
76998;BME280;65930;48.874;10.734;2023-12-29T04:41:43;95964.69;;;7.43;91.35
76998;BME280;65930;48.874;10.734;2023-12-29T04:44:11;95968.13;;;7.26;92.40
76998;BME280;65930;48.874;10.734;2023-12-29T04:46:39;95963.59;;;7.51;91.22
76998;BME280;65930;48.874;10.734;2023-12-29T04:49:07;95971.88;;;7.51;91.04
76998;BME280;65930;48.874;10.734;2023-12-29T04:51:35;95969.66;;;7.74;90.47
76998;BME280;65930;48.874;10.734;2023-12-29T04:54:03;95969.97;;;7.66;90.52
76998;BME280;65930;48.874;10.734;2023-12-29T04:56:31;95965.78;;;7.82;89.48
76998;BME280;65930;48.874;10.734;2023-12-29T04:59:00;95964.97;;;7.78;90.00
76998;BME280;65930;48.874;10.734;2023-12-29T05:01:28;95966.50;;;7.76;89.56
76998;BME280;65930;48.874;10.734;2023-12-29T05:03:56;95967.66;;;7.68;89.68
76998;BME280;65930;48.874;10.734;2023-12-29T05:06:25;95970.50;;;7.82;89.47
76998;BME280;65930;48.874;10.734;2023-12-29T05:08:53;95970.22;;;8.05;88.41
76998;BME280;65930;48.874;10.734;2023-12-29T05:11:21;95965.44;;;7.94;88.20
76998;BME280;65930;48.874;10.734;2023-12-29T05:13:49;95978.78;;;7.82;89.69
76998;BME280;65930;48.874;10.734;2023-12-29T05:16:18;95970.81;;;7.70;89.81
76998;BME280;65930;48.874;10.734;2023-12-29T05:18:46;95980.38;;;7.90;89.43
76998;BME280;65930;48.874;10.734;2023-12-29T05:21:14;95989.72;;;7.71;90.10
76998;BME280;65930;48.874;10.734;2023-12-29T05:23:44;95986.56;;;7.69;90.61
76998;BME280;65930;48.874;10.734;2023-12-29T05:26:12;95974.66;;;7.58;90.84
76998;BME280;65930;48.874;10.734;2023-12-29T05:28:41;95969.88;;;7.51;90.60
76998;BME280;65930;48.874;10.734;2023-12-29T05:31:09;95978.59;;;7.57;90.09
76998;BME280;65930;48.874;10.734;2023-12-29T05:33:38;95985.78;;;7.72;89.68
76998;BME280;65930;48.874;10.734;2023-12-29T05:36:08;95984.34;;;7.38;90.29
76998;BME280;65930;48.874;10.734;2023-12-29T05:38:37;95985.94;;;7.39;90.41
76998;BME280;65930;48.874;10.734;2023-12-29T05:41:07;95989.50;;;7.43;90.28
76998;BME280;65930;48.874;10.734;2023-12-29T05:43:35;95998.06;;;7.31;90.62
76998;BME280;65930;48.874;10.734;2023-12-29T05:46:09;95994.84;;;7.22;91.16
76998;BME280;65930;48.874;10.734;2023-12-29T05:48:39;95990.06;;;7.19;91.05
76998;BME280;65930;48.874;10.734;2023-12-29T05:51:08;95983.59;;;7.41;90.38
76998;BME280;65930;48.874;10.734;2023-12-29T05:53:37;95988.94;;;7.23;91.22
76998;BME280;65930;48.874;10.734;2023-12-29T05:56:07;95989.00;;;7.27;91.08
76998;BME280;65930;48.874;10.734;2023-12-29T05:58:35;95990.81;;;7.12;91.71
76998;BME280;65930;48.874;10.734;2023-12-29T06:01:03;95998.41;;;7.22;91.30
76998;BME280;65930;48.874;10.734;2023-12-29T06:03:32;95990.59;;;7.28;90.86
76998;BME280;65930;48.874;10.734;2023-12-29T06:06:02;95980.09;;;7.47;90.19
76998;BME280;65930;48.874;10.734;2023-12-29T06:08:30;95987.53;;;7.40;90.17
76998;BME280;65930;48.874;10.734;2023-12-29T06:10:58;95985.41;;;7.23;90.77
76998;BME280;65930;48.874;10.734;2023-12-29T06:13:26;95982.72;;;7.30;91.17
76998;BME280;65930;48.874;10.734;2023-12-29T06:15:54;95986.94;;;7.20;90.94
76998;BME280;65930;48.874;10.734;2023-12-29T06:18:23;95988.63;;;7.32;90.99
76998;BME280;65930;48.874;10.734;2023-12-29T06:20:51;95990.06;;;7.19;91.46
76998;BME280;65930;48.874;10.734;2023-12-29T06:23:20;95984.34;;;7.38;90.78
76998;BME280;65930;48.874;10.734;2023-12-29T06:25:48;95991.78;;;7.30;91.15
76998;BME280;65930;48.874;10.734;2023-12-29T06:28:17;95989.97;;;7.52;90.12
76998;BME280;65930;48.874;10.734;2023-12-29T06:30:45;95991.88;;;7.41;90.59
76998;BME280;65930;48.874;10.734;2023-12-29T06:33:13;95995.81;;;7.47;90.35
76998;BME280;65930;48.874;10.734;2023-12-29T06:35:42;95998.06;;;7.31;90.87
76998;BME280;65930;48.874;10.734;2023-12-29T06:38:10;95994.50;;;7.27;90.93
76998;BME280;65930;48.874;10.734;2023-12-29T06:40:39;95986.38;;;7.44;90.58
76998;BME280;65930;48.874;10.734;2023-12-29T06:43:07;95982.06;;;7.47;90.28
76998;BME280;65930;48.874;10.734;2023-12-29T06:45:35;95986.38;;;7.44;90.39
76998;BME280;65930;48.874;10.734;2023-12-29T06:48:04;95991.88;;;7.41;90.39
76998;BME280;65930;48.874;10.734;2023-12-29T06:50:32;95991.03;;;7.37;90.69
76998;BME280;65930;48.874;10.734;2023-12-29T06:53:02;95988.88;;;7.64;89.37
76998;BME280;65930;48.874;10.734;2023-12-29T06:55:30;95993.94;;;7.55;89.92
76998;BME280;65930;48.874;10.734;2023-12-29T06:57:59;95995.00;;;7.43;90.21
76998;BME280;65930;48.874;10.734;2023-12-29T07:00:28;95999.25;;;7.30;90.74
76998;BME280;65930;48.874;10.734;2023-12-29T07:02:56;95987.16;;;7.45;90.57
76998;BME280;65930;48.874;10.734;2023-12-29T07:05:24;95991.75;;;7.27;91.29
76998;BME280;65930;48.874;10.734;2023-12-29T07:07:52;96001.34;;;7.47;90.06
76998;BME280;65930;48.874;10.734;2023-12-29T07:10:20;95985.81;;;7.25;91.07
76998;BME280;65930;48.874;10.734;2023-12-29T07:12:48;95987.06;;;7.34;90.97
76998;BME280;65930;48.874;10.734;2023-12-29T07:15:18;95993.97;;;7.58;89.76
76998;BME280;65930;48.874;10.734;2023-12-29T07:17:46;95977.28;;;7.37;90.68
76998;BME280;65930;48.874;10.734;2023-12-29T07:20:15;95983.13;;;7.32;91.37
76998;BME280;65930;48.874;10.734;2023-12-29T07:22:43;95997.59;;;7.22;91.72
76998;BME280;65930;48.874;10.734;2023-12-29T07:25:11;96012.88;;;7.16;91.91
76998;BME280;65930;48.874;10.734;2023-12-29T07:27:39;95996.47;;;7.26;91.65
76998;BME280;65930;48.874;10.734;2023-12-29T07:30:08;96004.44;;;7.42;90.59
76998;BME280;65930;48.874;10.734;2023-12-29T07:32:38;96005.97;;;7.32;91.52
76998;BME280;65930;48.874;10.734;2023-12-29T07:35:07;95994.19;;;7.35;90.83
76998;BME280;65930;48.874;10.734;2023-12-29T07:37:35;95977.34;;;7.47;90.11
76998;BME280;65930;48.874;10.734;2023-12-29T07:40:04;95983.94;;;7.32;90.76
76998;BME280;65930;48.874;10.734;2023-12-29T07:42:34;95983.88;;;7.29;91.37
76998;BME280;65930;48.874;10.734;2023-12-29T07:45:03;95994.88;;;7.25;90.97
76998;BME280;65930;48.874;10.734;2023-12-29T07:47:32;95991.88;;;7.44;90.35
76998;BME280;65930;48.874;10.734;2023-12-29T07:50:02;95981.56;;;7.34;90.67
76998;BME280;65930;48.874;10.734;2023-12-29T07:52:30;95995.78;;;7.40;90.19
76998;BME280;65930;48.874;10.734;2023-12-29T07:54:58;95986.69;;;7.36;90.37
76998;BME280;65930;48.874;10.734;2023-12-29T07:57:26;95989.47;;;7.39;90.50
76998;BME280;65930;48.874;10.734;2023-12-29T07:59:54;95983.94;;;7.36;90.75
76998;BME280;65930;48.874;10.734;2023-12-29T08:02:23;95983.19;;;7.39;90.87
76998;BME280;65930;48.874;10.734;2023-12-29T08:04:50;95996.44;;;7.23;91.65
76998;BME280;65930;48.874;10.734;2023-12-29T08:07:20;96006.09;;;7.50;90.35
76998;BME280;65930;48.874;10.734;2023-12-29T08:09:48;96008.41;;;7.44;90.62
76998;BME280;65930;48.874;10.734;2023-12-29T08:12:16;96013.94;;;7.44;90.88
76998;BME280;65930;48.874;10.734;2023-12-29T08:14:44;96015.47;;;7.42;91.02
76998;BME280;65930;48.874;10.734;2023-12-29T08:17:13;96025.44;;;7.53;90.45
76998;BME280;65930;48.874;10.734;2023-12-29T08:19:41;96022.66;;;7.50;90.64
76998;BME280;65930;48.874;10.734;2023-12-29T08:22:09;96022.69;;;7.57;90.47
76998;BME280;65930;48.874;10.734;2023-12-29T08:24:41;96014.03;;;7.55;90.42
76998;BME280;65930;48.874;10.734;2023-12-29T08:27:12;96016.03;;;7.62;90.30
76998;BME280;65930;48.874;10.734;2023-12-29T08:29:40;96013.69;;;7.64;90.60
76998;BME280;65930;48.874;10.734;2023-12-29T08:32:08;96019.94;;;7.57;91.04
76998;BME280;65930;48.874;10.734;2023-12-29T08:34:36;96020.00;;;7.64;90.34
76998;BME280;65930;48.874;10.734;2023-12-29T08:37:05;96015.84;;;7.88;89.58
76998;BME280;65930;48.874;10.734;2023-12-29T08:39:33;96012.47;;;7.61;90.59
76998;BME280;65930;48.874;10.734;2023-12-29T08:42:03;96015.84;;;7.88;89.39
76998;BME280;65930;48.874;10.734;2023-12-29T08:44:32;96008.41;;;7.95;89.23
76998;BME280;65930;48.874;10.734;2023-12-29T08:47:00;96002.69;;;7.67;90.36
76998;BME280;65930;48.874;10.734;2023-12-29T08:49:29;96018.91;;;7.79;90.06
76998;BME280;65930;48.874;10.734;2023-12-29T08:51:57;96020.56;;;7.87;89.91
76998;BME280;65930;48.874;10.734;2023-12-29T08:54:25;96014.19;;;7.80;90.08
76998;BME280;65930;48.874;10.734;2023-12-29T08:56:54;96024.59;;;8.01;89.98
76998;BME280;65930;48.874;10.734;2023-12-29T08:59:23;96023.78;;;7.96;89.55
76998;BME280;65930;48.874;10.734;2023-12-29T09:01:51;96037.97;;;7.98;88.93
76998;BME280;65930;48.874;10.734;2023-12-29T09:04:19;96036.44;;;8.05;88.47
76998;BME280;65930;48.874;10.734;2023-12-29T09:06:47;96026.94;;;7.98;88.44
76998;BME280;65930;48.874;10.734;2023-12-29T09:09:15;96034.81;;;7.96;88.51
76998;BME280;65930;48.874;10.734;2023-12-29T09:11:44;96034.47;;;8.02;89.05
76998;BME280;65930;48.874;10.734;2023-12-29T09:14:14;96023.72;;;7.89;89.39
76998;BME280;65930;48.874;10.734;2023-12-29T09:16:43;96030.94;;;8.08;89.06
76998;BME280;65930;48.874;10.734;2023-12-29T09:19:13;96032.50;;;8.02;89.88
76998;BME280;65930;48.874;10.734;2023-12-29T09:21:56;96032.09;;;8.07;89.54
76998;BME280;65930;48.874;10.734;2023-12-29T09:24:24;96035.97;;;7.95;90.13
76998;BME280;65930;48.874;10.734;2023-12-29T09:26:52;96040.38;;;8.04;90.36
76998;BME280;65930;48.874;10.734;2023-12-29T09:29:21;96045.22;;;8.21;89.47
76998;BME280;65930;48.874;10.734;2023-12-29T09:31:50;96039.56;;;8.03;90.40
76998;BME280;65930;48.874;10.734;2023-12-29T09:34:19;96050.13;;;7.90;91.83
76998;BME280;65930;48.874;10.734;2023-12-29T09:36:47;96043.88;;;7.97;91.31
76998;BME280;65930;48.874;10.734;2023-12-29T09:39:15;96048.34;;;8.16;91.24
76998;BME280;65930;48.874;10.734;2023-12-29T09:41:46;96047.53;;;8.15;90.94
76998;BME280;65930;48.874;10.734;2023-12-29T09:44:15;96055.38;;;8.06;91.63
76998;BME280;65930;48.874;10.734;2023-12-29T09:46:52;96041.00;;;8.41;89.87
76998;BME280;65930;48.874;10.734;2023-12-29T09:49:21;96044.00;;;8.15;90.98
76998;BME280;65930;48.874;10.734;2023-12-29T09:51:50;96041.25;;;8.22;90.86
76998;BME280;65930;48.874;10.734;2023-12-29T09:54:19;96039.81;;;8.35;90.16
76998;BME280;65930;48.874;10.734;2023-12-29T09:56:49;96047.31;;;8.38;89.91
76998;BME280;65930;48.874;10.734;2023-12-29T09:59:18;96044.19;;;8.39;90.48
76998;BME280;65930;48.874;10.734;2023-12-29T10:01:48;96050.75;;;8.24;90.67
76998;BME280;65930;48.874;10.734;2023-12-29T10:04:18;96047.34;;;8.45;90.56
76998;BME280;65930;48.874;10.734;2023-12-29T10:06:50;96039.06;;;8.45;90.21
76998;BME280;65930;48.874;10.734;2023-12-29T10:09:20;96047.38;;;8.52;90.67
76998;BME280;65930;48.874;10.734;2023-12-29T10:11:50;96038.75;;;8.64;90.50
76998;BME280;65930;48.874;10.734;2023-12-29T10:14:22;96029.72;;;8.67;90.24
76998;BME280;65930;48.874;10.734;2023-12-29T10:17:02;96039.09;;;8.52;90.84
76998;BME280;65930;48.874;10.734;2023-12-29T10:19:39;96047.03;;;8.64;90.51
76998;BME280;65930;48.874;10.734;2023-12-29T10:22:15;96035.19;;;8.60;90.79
76998;BME280;65930;48.874;10.734;2023-12-29T10:24:46;96030.84;;;8.59;90.94
76998;BME280;65930;48.874;10.734;2023-12-29T10:27:15;96034.34;;;8.49;90.91
76998;BME280;65930;48.874;10.734;2023-12-29T10:29:43;96031.25;;;8.61;90.75
76998;BME280;65930;48.874;10.734;2023-12-29T10:32:11;96025.78;;;8.72;90.49
76998;BME280;65930;48.874;10.734;2023-12-29T10:34:41;96027.31;;;8.66;91.25
76998;BME280;65930;48.874;10.734;2023-12-29T10:37:09;96013.91;;;8.64;91.67
76998;BME280;65930;48.874;10.734;2023-12-29T10:39:55;96017.84;;;8.63;91.65
76998;BME280;65930;48.874;10.734;2023-12-29T10:42:23;96022.97;;;8.68;91.36
76998;BME280;65930;48.874;10.734;2023-12-29T10:45:04;96015.53;;;8.87;91.38
76998;BME280;65930;48.874;10.734;2023-12-29T10:47:34;96009.25;;;8.86;90.79
76998;BME280;65930;48.874;10.734;2023-12-29T10:50:04;96010.88;;;9.05;89.91
76998;BME280;65930;48.874;10.734;2023-12-29T10:52:32;96004.13;;;8.92;90.17
76998;BME280;65930;48.874;10.734;2023-12-29T10:55:05;95999.84;;;9.05;89.47
76998;BME280;65930;48.874;10.734;2023-12-29T10:57:34;95988.38;;;9.03;90.16
76998;BME280;65930;48.874;10.734;2023-12-29T11:00:04;95996.66;;;9.03;89.14
76998;BME280;65930;48.874;10.734;2023-12-29T11:02:34;95986.00;;;9.05;89.94
76998;BME280;65930;48.874;10.734;2023-12-29T11:05:06;95980.84;;;8.89;90.68
76998;BME280;65930;48.874;10.734;2023-12-29T11:07:35;95982.06;;;9.13;90.30
76998;BME280;65930;48.874;10.734;2023-12-29T11:10:06;95984.44;;;9.04;90.23
76998;BME280;65930;48.874;10.734;2023-12-29T11:12:36;95980.06;;;9.10;90.35
76998;BME280;65930;48.874;10.734;2023-12-29T11:15:06;95984.84;;;9.16;90.84
76998;BME280;65930;48.874;10.734;2023-12-29T11:17:35;95968.28;;;9.27;90.25
76998;BME280;65930;48.874;10.734;2023-12-29T11:20:06;95975.38;;;9.28;90.33
76998;BME280;65930;48.874;10.734;2023-12-29T11:22:34;95960.38;;;9.22;90.60
76998;BME280;65930;48.874;10.734;2023-12-29T11:25:04;95960.75;;;9.38;89.11
76998;BME280;65930;48.874;10.734;2023-12-29T11:27:34;95965.88;;;9.29;89.85
76998;BME280;65930;48.874;10.734;2023-12-29T11:30:04;95964.72;;;9.41;89.89
76998;BME280;65930;48.874;10.734;2023-12-29T11:32:42;95955.25;;;9.31;90.18
76998;BME280;65930;48.874;10.734;2023-12-29T11:35:20;95958.41;;;9.22;90.35
76998;BME280;65930;48.874;10.734;2023-12-29T11:38:08;95952.47;;;9.20;90.24
76998;BME280;65930;48.874;10.734;2023-12-29T11:40:46;95950.91;;;9.23;90.62
76998;BME280;65930;48.874;10.734;2023-12-29T11:43:18;95954.84;;;9.40;90.01
76998;BME280;65930;48.874;10.734;2023-12-29T11:45:46;95948.91;;;9.27;90.30
76998;BME280;65930;48.874;10.734;2023-12-29T11:51:31;95952.47;;;9.31;90.87
76998;BME280;65930;48.874;10.734;2023-12-29T11:54:01;95946.16;;;9.13;92.03
76998;BME280;65930;48.874;10.734;2023-12-29T11:56:34;95953.66;;;9.12;91.63
76998;BME280;65930;48.874;10.734;2023-12-29T11:59:13;95940.63;;;9.13;91.67
76998;BME280;65930;48.874;10.734;2023-12-29T12:01:42;95951.69;;;9.34;91.05
76998;BME280;65930;48.874;10.734;2023-12-29T12:04:33;95928.78;;;9.51;90.67
76998;BME280;65930;48.874;10.734;2023-12-29T12:07:03;95932.69;;;9.57;89.66
76998;BME280;65930;48.874;10.734;2023-12-29T12:09:31;95928.00;;;9.40;90.66
76998;BME280;65930;48.874;10.734;2023-12-29T12:12:02;95931.94;;;9.21;92.14
76998;BME280;65930;48.874;10.734;2023-12-29T12:14:51;95929.16;;;9.43;90.85
76998;BME280;65930;48.874;10.734;2023-12-29T12:17:30;95926.41;;;9.46;91.67
76998;BME280;65930;48.874;10.734;2023-12-29T12:20:02;95926.41;;;9.32;91.98
76998;BME280;65930;48.874;10.734;2023-12-29T12:22:32;95928.78;;;9.23;91.92
76998;BME280;65930;48.874;10.734;2023-12-29T12:25:05;95918.09;;;9.39;91.06
76998;BME280;65930;48.874;10.734;2023-12-29T12:27:38;95915.72;;;9.62;90.44
76998;BME280;65930;48.874;10.734;2023-12-29T12:30:07;95916.91;;;9.54;90.21
76998;BME280;65930;48.874;10.734;2023-12-29T12:32:37;95913.38;;;9.61;90.26
76998;BME280;65930;48.874;10.734;2023-12-29T12:35:13;95914.94;;;9.58;89.61
76998;BME280;65930;48.874;10.734;2023-12-29T12:37:47;95918.88;;;9.57;89.78
76998;BME280;65930;48.874;10.734;2023-12-29T12:40:25;95905.06;;;9.50;90.19
76998;BME280;65930;48.874;10.734;2023-12-29T12:42:54;95908.22;;;9.52;89.95
76998;BME280;65930;48.874;10.734;2023-12-29T12:45:22;95904.66;;;9.62;89.85
76998;BME280;65930;48.874;10.734;2023-12-29T12:48:01;95908.22;;;9.59;89.72
76998;BME280;65930;48.874;10.734;2023-12-29T12:50:30;95905.44;;;9.66;89.33
76998;BME280;65930;48.874;10.734;2023-12-29T12:53:00;95911.34;;;9.72;88.99
76998;BME280;65930;48.874;10.734;2023-12-29T12:55:34;95909.03;;;9.56;88.97
76998;BME280;65930;48.874;10.734;2023-12-29T12:58:03;95907.38;;;9.84;88.13
76998;BME280;65930;48.874;10.734;2023-12-29T13:00:32;95914.47;;;9.85;87.91
76998;BME280;65930;48.874;10.734;2023-12-29T13:03:01;95915.31;;;9.78;88.08
76998;BME280;65930;48.874;10.734;2023-12-29T13:05:29;95914.81;;;10.04;87.99
76998;BME280;65930;48.874;10.734;2023-12-29T13:07:59;95907.34;;;9.94;87.40
76998;BME280;65930;48.874;10.734;2023-12-29T13:10:30;95914.91;;;9.76;88.30
76998;BME280;65930;48.874;10.734;2023-12-29T13:12:58;95912.09;;;9.97;87.68
76998;BME280;65930;48.874;10.734;2023-12-29T13:15:27;95913.72;;;9.73;88.31